Terminal Aerodrome Forecast
Issued by NWS

Home | Current Version | Previous Version | Text Only | Print | Product List | Glossary Off
Versions: 1 2 3 4 5 6 7 8 9 10 11 12 13

000
FTUS43 KMPX 211120
TAFRNH
TAF
KRNH 211120Z 2112/2212 22005KT P6SM FEW110
     FM211430 27009KT P6SM FEW110
     FM211700 33012G18KT P6SM SKC
     FM220100 33003KT P6SM SKC=

USA.gov is the U.S. government's official web portal to all federal, state and local government web resources and services.